Time;durP1;ratioP1;P1;durP2;ratioP2;P2;SDS_P1;SDS_P2;PMS_P1;PMS_P2;Temp;Humidity;BMP_temperature;BMP_pressure;BME280_temperature;BME280_humidity;BME280_pressure;Samples;Min_cycle;Max_cycle;Signal;HPM_P1;HPM_P2
2022/04/04 00:01:21;;;;;;;9.43;8.55;;;;;;;;;;10471855;27;20039;-62
2022/04/04 00:06:20;;;;;;;9.57;7.93;;;;;;;;;;10471798;27;20070;-63
2022/04/04 00:11:18;;;;;;;8.82;7.20;;;;;;;;;;10453412;27;20050;-62
2022/04/04 00:16:18;;;;;;;8.48;7.70;;;;;;;;;;10471627;27;20074;-62
2022/04/04 00:21:17;;;;;;;9.50;8.50;;;;;;;;;;10472036;27;20519;-62
2022/04/04 00:26:16;;;;;;;9.82;8.77;;;;;;;;;;10471271;27;20063;-62
2022/04/04 00:31:14;;;;;;;9.23;8.32;;;;;;;;;;10470744;27;20101;-63
2022/04/04 00:36:14;;;;;;;9.45;8.55;;;;;;;;;;10452092;27;20046;-62
2022/04/04 00:41:15;;;;;;;9.90;8.93;;;;;;;;;;10470861;27;20487;-64
2022/04/04 00:46:13;;;;;;;9.77;8.77;;;;;;;;;;10470892;27;20066;-64
2022/04/04 00:51:11;;;;;;;9.20;8.32;;;;;;;;;;10451489;27;20042;-64
2022/04/04 00:56:12;;;;;;;10.27;9.27;;;;;;;;;;10460797;27;20065;-64
2022/04/04 01:01:11;;;;;;;9.35;8.45;;;;;;;;;;10436154;27;20086;-64
2022/04/04 01:06:09;;;;;;;8.90;8.00;;;;;;;;;;10470124;27;20069;-64
2022/04/04 01:11:08;;;;;;;10.55;9.45;;;;;;;;;;10443559;27;20077;-63
2022/04/04 01:16:07;;;;;;;10.68;8.00;;;;;;;;;;10448980;27;20050;-64
2022/04/04 01:21:06;;;;;;;10.50;9.40;;;;;;;;;;10450070;27;20075;-64
2022/04/04 01:26:05;;;;;;;10.48;9.05;;;;;;;;;;10458683;27;20459;-64
2022/04/04 01:31:04;;;;;;;9.73;8.73;;;;;;;;;;10469557;27;20150;-64
2022/04/04 01:36:02;;;;;;;9.95;8.98;;;;;;;;;;10468350;27;20134;-63
2022/04/04 01:41:01;;;;;;;8.68;7.88;;;;;;;;;;10468174;27;20503;-63
2022/04/04 01:51:17;;;;;;;9.38;8.48;;;;;;;;;;10449209;27;20043;-62
2022/04/04 01:56:15;;;;;;;9.60;8.60;;;;;;;;;;10468388;27;20492;-62
2022/04/04 02:01:16;;;;;;;9.80;8.80;;;;;;;;;;10467002;27;20059;-62
2022/04/04 02:06:14;;;;;;;11.43;10.23;;;;;;;;;;10468282;27;20081;-62
2022/04/04 02:11:14;;;;;;;10.88;9.77;;;;;;;;;;10466860;27;20078;-62
2022/04/04 02:16:12;;;;;;;10.25;9.25;;;;;;;;;;10443617;27;20050;-63
2022/04/04 02:21:12;;;;;;;11.35;10.05;;;;;;;;;;10466141;27;20077;-63
2022/04/04 02:26:10;;;;;;;11.73;10.63;;;;;;;;;;10466949;27;20070;-63
2022/04/04 02:31:09;;;;;;;15.18;10.43;;;;;;;;;;10436373;27;20108;-62
2022/04/04 02:36:08;;;;;;;12.93;11.63;;;;;;;;;;10447326;27;20081;-62
2022/04/04 02:41:08;;;;;;;13.48;11.27;;;;;;;;;;10437041;27;20060;-63
2022/04/04 02:46:08;;;;;;;12.65;11.35;;;;;;;;;;10447091;27;20402;-63
2022/04/04 02:51:08;;;;;;;13.60;12.20;;;;;;;;;;10437278;27;20491;-62
2022/04/04 03:01:24;;;;;;;12.77;11.57;;;;;;;;;;10457196;27;20082;-62
2022/04/04 03:06:22;;;;;;;12.68;11.25;;;;;;;;;;10474043;27;20085;-63
2022/04/04 03:11:22;;;;;;;13.07;11.70;;;;;;;;;;10474605;27;20062;-63
2022/04/04 03:16:21;;;;;;;13.38;12.05;;;;;;;;;;10473520;27;20092;-62
2022/04/04 03:21:19;;;;;;;14.25;12.77;;;;;;;;;;10474052;27;20085;-63
2022/04/04 03:26:17;;;;;;;16.08;14.07;;;;;;;;;;10473972;27;20066;-63
2022/04/04 03:31:17;;;;;;;21.58;18.52;;;;;;;;;;10477609;27;20132;-62
2022/04/04 03:36:15;;;;;;;13.90;11.95;;;;;;;;;;10443772;27;20047;-63
2022/04/04 03:41:14;;;;;;;14.13;11.88;;;;;;;;;;10446616;27;20043;-62
2022/04/04 03:46:12;;;;;;;14.95;13.35;;;;;;;;;;10476402;27;20518;-64
2022/04/04 03:51:14;;;;;;;14.90;13.20;;;;;;;;;;10466851;27;20042;-62
2022/04/04 03:56:13;;;;;;;13.85;11.77;;;;;;;;;;10476155;27;20058;-62
2022/04/04 04:01:12;;;;;;;24.45;16.75;;;;;;;;;;10469887;27;20078;-62
2022/04/04 04:06:14;;;;;;;14.82;13.18;;;;;;;;;;10469798;27;20071;-63
2022/04/04 04:11:14;;;;;;;13.80;12.38;;;;;;;;;;10459846;27;20450;-63
2022/04/04 04:16:13;;;;;;;15.48;13.38;;;;;;;;;;10472370;27;20079;-63
2022/04/04 04:21:12;;;;;;;17.02;12.85;;;;;;;;;;10453904;27;20059;-63
2022/04/04 04:26:14;;;;;;;18.38;13.93;;;;;;;;;;10452602;27;20039;-63
2022/04/04 04:31:14;;;;;;;15.50;13.90;;;;;;;;;;10441536;27;20063;-63
2022/04/04 04:36:12;;;;;;;16.35;13.57;;;;;;;;;;10440926;27;20043;-63
2022/04/04 04:41:11;;;;;;;20.85;15.55;;;;;;;;;;10443770;27;20058;-63
2022/04/04 04:46:11;;;;;;;15.18;13.10;;;;;;;;;;10447761;27;20069;-62
2022/04/04 04:51:09;;;;;;;15.82;14.13;;;;;;;;;;10450828;27;20097;-63
2022/04/04 04:56:07;;;;;;;16.92;13.93;;;;;;;;;;10448985;27;20173;-63
2022/04/04 05:01:06;;;;;;;19.92;15.95;;;;;;;;;;10461205;27;20070;-64
2022/04/04 05:06:06;;;;;;;44.05;33.75;;;;;;;;;;10467886;27;20066;-64
2022/04/04 05:11:06;;;;;;;18.42;14.95;;;;;;;;;;10469469;27;20479;-64
2022/04/04 05:16:08;;;;;;;20.42;17.27;;;;;;;;;;10444148;27;20074;-64
2022/04/04 05:21:09;;;;;;;20.80;17.13;;;;;;;;;;10436343;27;20067;-64
2022/04/04 05:26:07;;;;;;;15.27;13.77;;;;;;;;;;10436934;27;20558;-64
2022/04/04 05:31:06;;;;;;;15.65;14.05;;;;;;;;;;10440161;27;20541;-64
2022/04/04 05:36:05;;;;;;;17.55;15.50;;;;;;;;;;10469480;27;20063;-65
2022/04/04 05:41:05;;;;;;;14.68;13.18;;;;;;;;;;10447516;27;20073;-63
2022/04/04 05:46:03;;;;;;;18.67;15.25;;;;;;;;;;10468528;27;20092;-64
2022/04/04 05:51:02;;;;;;;18.63;15.38;;;;;;;;;;10468536;27;20077;-64
2022/04/04 05:56:00;;;;;;;17.15;14.43;;;;;;;;;;10467965;27;20106;-63
2022/04/04 06:01:00;;;;;;;19.42;15.52;;;;;;;;;;10468198;27;20043;-63
2022/04/04 06:05:58;;;;;;;15.65;13.25;;;;;;;;;;10466958;27;21606;-64
2022/04/04 06:10:57;;;;;;;14.85;13.23;;;;;;;;;;10467797;27;20069;-64
2022/04/04 06:15:55;;;;;;;18.25;16.20;;;;;;;;;;10466952;27;20506;-62
2022/04/04 06:20:55;;;;;;;14.00;12.48;;;;;;;;;;10466986;27;20043;-63
2022/04/04 06:25:53;;;;;;;15.95;13.18;;;;;;;;;;10445124;27;20069;-62
2022/04/04 06:30:52;;;;;;;17.70;15.35;;;;;;;;;;10445321;27;20087;-63
2022/04/04 06:35:51;;;;;;;28.63;21.23;;;;;;;;;;10464511;27;20077;-62
2022/04/04 06:40:51;;;;;;;22.70;19.13;;;;;;;;;;10466579;27;20030;-62
2022/04/04 06:45:49;;;;;;;13.95;12.45;;;;;;;;;;10463765;27;20035;-62
2022/04/04 06:50:48;;;;;;;15.20;12.82;;;;;;;;;;10465450;27;20086;-63
2022/04/04 06:55:46;;;;;;;15.18;12.70;;;;;;;;;;10466765;27;20046;-63
2022/04/04 07:00:46;;;;;;;15.50;13.05;;;;;;;;;;10447756;27;20082;-63
2022/04/04 07:05:44;;;;;;;16.02;13.02;;;;;;;;;;10447944;27;20047;-62
2022/04/04 07:10:43;;;;;;;15.93;12.07;;;;;;;;;;10436021;28;20182;-62
2022/04/04 07:15:43;;;;;;;14.20;10.75;;;;;;;;;;10449548;27;20094;-62
2022/04/04 07:20:43;;;;;;;14.00;12.15;;;;;;;;;;10466248;27;20066;-62
2022/04/04 07:25:41;;;;;;;11.15;9.68;;;;;;;;;;10466336;27;20047;-61
2022/04/04 07:30:39;;;;;;;11.77;10.20;;;;;;;;;;10464341;27;20502;-62
2022/04/04 07:35:38;;;;;;;10.38;9.23;;;;;;;;;;10462448;27;20062;-63
2022/04/04 07:40:37;;;;;;;15.15;11.43;;;;;;;;;;10470698;27;20093;-63
2022/04/04 07:45:36;;;;;;;14.77;10.48;;;;;;;;;;10455863;27;20524;-63
2022/04/04 07:50:41;;;;;;;14.40;9.57;;;;;;;;;;10473559;27;20073;-62
2022/04/04 07:55:41;;;;;;;11.32;9.77;;;;;;;;;;10453956;27;20079;-62
2022/04/04 08:00:39;;;;;;;15.75;10.48;;;;;;;;;;10473355;27;20082;-62
2022/04/04 08:05:38;;;;;;;12.25;7.68;;;;;;;;;;10454421;27;20515;-63
2022/04/04 08:10:36;;;;;;;9.15;7.80;;;;;;;;;;10471575;27;20071;-63
2022/04/04 08:15:36;;;;;;;10.32;7.40;;;;;;;;;;10471990;27;20078;-63
2022/04/04 08:20:35;;;;;;;11.00;9.02;;;;;;;;;;10472073;27;20043;-63
2022/04/04 08:25:33;;;;;;;7.50;6.45;;;;;;;;;;10471253;27;20039;-63
2022/04/04 08:30:31;;;;;;;11.23;8.65;;;;;;;;;;10471523;27;20070;-63
2022/04/04 08:35:31;;;;;;;8.20;6.72;;;;;;;;;;10470920;27;20059;-62
2022/04/04 08:40:29;;;;;;;11.75;9.15;;;;;;;;;;10469954;27;20093;-63
2022/04/04 08:45:28;;;;;;;9.13;8.23;;;;;;;;;;10483156;27;20085;-63
2022/04/04 08:50:26;;;;;;;9.27;8.18;;;;;;;;;;10483805;27;20077;-63
2022/04/04 08:55:26;;;;;;;14.30;8.88;;;;;;;;;;10483445;27;20505;-63
2022/04/04 09:00:27;;;;;;;12.80;8.98;;;;;;;;;;10469064;27;20089;-63
2022/04/04 09:05:26;;;;;;;9.60;8.48;;;;;;;;;;10469602;27;20039;-63
2022/04/04 09:10:32;;;;;;;11.77;8.35;;;;;;;;;;10469408;27;20075;-63
2022/04/04 09:15:48;;;;;;;12.35;7.80;;;;;;;;;;10469370;27;20078;-63
2022/04/04 09:20:50;;;;;;;13.45;9.40;;;;;;;;;;10450974;27;20051;-62
2022/04/04 09:25:50;;;;;;;14.07;11.70;;;;;;;;;;10469189;27;20077;-62
2022/04/04 09:31:05;;;;;;;13.82;10.05;;;;;;;;;;10467562;27;20113;-62
2022/04/04 09:36:04;;;;;;;10.63;8.90;;;;;;;;;;10464344;27;20074;-63
2022/04/04 09:41:06;;;;;;;9.60;7.55;;;;;;;;;;10469171;27;20042;-63
2022/04/04 09:46:10;;;;;;;10.15;8.07;;;;;;;;;;10468586;27;20074;-63
2022/04/04 09:51:08;;;;;;;10.20;9.18;;;;;;;;;;10436226;27;20097;-64
2022/04/04 09:56:09;;;;;;;15.23;10.75;;;;;;;;;;10438124;27;20115;-63
2022/04/04 10:01:08;;;;;;;8.02;7.20;;;;;;;;;;10447290;27;20078;-64
2022/04/04 10:06:07;;;;;;;20.35;11.65;;;;;;;;;;10447672;27;20070;-62
2022/04/04 10:11:07;;;;;;;10.80;9.68;;;;;;;;;;10447175;27;20510;-64
2022/04/04 10:16:07;;;;;;;10.45;9.40;;;;;;;;;;10446715;27;20077;-65
2022/04/04 10:21:05;;;;;;;13.02;10.38;;;;;;;;;;10446363;27;20044;-62
2022/04/04 10:26:06;;;;;;;11.00;9.52;;;;;;;;;;10467451;27;20122;-64
2022/04/04 10:31:13;;;;;;;14.50;8.50;;;;;;;;;;10467356;27;20074;-64
2022/04/04 10:36:12;;;;;;;9.52;8.00;;;;;;;;;;10436674;27;20062;-64
2022/04/04 10:41:10;;;;;;;11.13;8.40;;;;;;;;;;10436408;27;20066;-62
2022/04/04 10:46:09;;;;;;;12.50;9.02;;;;;;;;;;10446291;27;20097;-63
2022/04/04 10:51:17;;;;;;;12.02;8.63;;;;;;;;;;10436676;28;20530;-63
2022/04/04 10:56:20;;;;;;;9.55;8.65;;;;;;;;;;10447526;27;20042;-63
2022/04/04 11:01:20;;;;;;;11.15;9.52;;;;;;;;;;10466415;27;20086;-63
2022/04/04 11:11:43;;;;;;;9.65;8.65;;;;;;;;;;10465629;27;20074;-64
2022/04/04 11:17:00;;;;;;;10.25;8.30;;;;;;;;;;10443069;27;20301;-64
2022/04/04 11:22:00;;;;;;;10.23;8.20;;;;;;;;;;10449427;27;20074;-63
2022/04/04 11:26:59;;;;;;;17.20;9.85;;;;;;;;;;10474722;27;20042;-64
2022/04/04 11:31:57;;;;;;;9.88;8.25;;;;;;;;;;10470812;27;20079;-64
2022/04/04 11:36:56;;;;;;;17.15;12.70;;;;;;;;;;10474227;27;20074;-64
2022/04/04 11:41:56;;;;;;;11.98;7.95;;;;;;;;;;10474082;27;20039;-64
2022/04/04 11:47:16;;;;;;;9.68;7.90;;;;;;;;;;10473235;27;20414;-64
2022/04/04 11:52:19;;;;;;;11.00;8.43;;;;;;;;;;10466765;27;20078;-64
2022/04/04 11:57:19;;;;;;;16.63;11.55;;;;;;;;;;10473830;27;20067;-64
2022/04/04 12:02:23;;;;;;;15.15;12.23;;;;;;;;;;10473332;27;20054;-63
2022/04/04 12:07:21;;;;;;;29.83;17.85;;;;;;;;;;10472991;27;20059;-64
2022/04/04 12:12:29;;;;;;;17.38;12.55;;;;;;;;;;10472806;27;20067;-64
2022/04/04 12:17:29;;;;;;;18.77;14.13;;;;;;;;;;10472765;27;20090;-63
2022/04/04 12:27:58;;;;;;;13.85;9.02;;;;;;;;;;10422247;27;20484;-64
2022/04/04 12:33:06;;;;;;;13.32;10.15;;;;;;;;;;10448996;27;20137;-63
2022/04/04 12:38:06;;;;;;;13.95;10.77;;;;;;;;;;10470309;27;20450;-64
2022/04/04 12:43:07;;;;;;;10.57;9.52;;;;;;;;;;10483508;27;20069;-64
2022/04/04 12:48:07;;;;;;;11.57;10.38;;;;;;;;;;10483550;27;20042;-64
2022/04/04 12:53:07;;;;;;;13.15;9.80;;;;;;;;;;10452974;27;20078;-64
2022/04/04 12:58:18;;;;;;;12.60;10.57;;;;;;;;;;10448342;27;20439;-64
2022/04/04 13:03:24;;;;;;;10.60;9.02;;;;;;;;;;10470178;27;20077;-64
2022/04/04 13:08:25;;;;;;;12.93;11.52;;;;;;;;;;10469195;27;20081;-64
2022/04/04 13:13:25;;;;;;;10.45;9.45;;;;;;;;;;10468057;27;20078;-64
2022/04/04 13:18:24;;;;;;;16.05;14.32;;;;;;;;;;10468489;27;20062;-62
2022/04/04 13:23:23;;;;;;;22.77;17.65;;;;;;;;;;10468710;27;20460;-63
2022/04/04 13:28:22;;;;;;;26.73;15.48;;;;;;;;;;10468897;27;20046;-64
2022/04/04 13:33:23;;;;;;;15.68;10.65;;;;;;;;;;10466775;27;20078;-63
2022/04/04 13:38:23;;;;;;;17.75;14.93;;;;;;;;;;10467221;27;20090;-62
2022/04/04 13:43:22;;;;;;;12.68;11.25;;;;;;;;;;10482504;27;20070;-61
2022/04/04 13:48:21;;;;;;;11.32;10.02;;;;;;;;;;10482342;27;20042;-61
2022/04/04 13:53:21;;;;;;;16.02;14.35;;;;;;;;;;10480666;27;20078;-61
2022/04/04 13:58:21;;;;;;;9.95;8.75;;;;;;;;;;10468160;27;20078;-62
2022/04/04 14:03:20;;;;;;;22.00;17.38;;;;;;;;;;10467774;27;20049;-62
2022/04/04 14:08:19;;;;;;;22.45;15.90;;;;;;;;;;10466593;27;20085;-61
2022/04/04 14:13:21;;;;;;;13.43;11.07;;;;;;;;;;10467767;27;20065;-61
2022/04/04 14:18:21;;;;;;;18.10;16.10;;;;;;;;;;10467159;27;20055;-61
2022/04/04 14:23:19;;;;;;;13.07;11.13;;;;;;;;;;10467130;27;20074;-61
2022/04/04 14:28:18;;;;;;;16.83;11.98;;;;;;;;;;10466006;27;20078;-61
2022/04/04 14:33:20;;;;;;;20.70;17.63;;;;;;;;;;10465783;27;20085;-63
2022/04/04 14:38:19;;;;;;;13.55;11.20;;;;;;;;;;10467026;27;20054;-63
2022/04/04 14:43:17;;;;;;;48.00;38.92;;;;;;;;;;10466999;27;20066;-64
2022/04/04 14:48:16;;;;;;;10.55;9.45;;;;;;;;;;10471289;27;20364;-63
2022/04/04 14:53:16;;;;;;;28.88;19.08;;;;;;;;;;10480233;27;20074;-64
2022/04/04 14:58:35;;;;;;;14.20;12.27;;;;;;;;;;10478645;27;20035;-65
2022/04/04 15:03:33;;;;;;;25.15;19.33;;;;;;;;;;10472018;27;20074;-64
2022/04/04 15:08:33;;;;;;;16.52;12.45;;;;;;;;;;10479731;27;20042;-63
2022/04/04 15:13:31;;;;;;;35.10;21.85;;;;;;;;;;10478497;27;20534;-63
2022/04/04 15:18:30;;;;;;;13.60;10.95;;;;;;;;;;10478521;27;20097;-63
2022/04/04 15:23:28;;;;;;;62.05;36.92;;;;;;;;;;10479088;27;20098;-63
2022/04/04 15:28:48;;;;;;;16.38;13.52;;;;;;;;;;10479211;27;20475;-63
2022/04/04 15:33:48;;;;;;;47.55;25.17;;;;;;;;;;10476395;27;20074;-62
2022/04/04 15:38:47;;;;;;;19.73;13.70;;;;;;;;;;10476731;27;20047;-63
2022/04/04 15:43:51;;;;;;;15.65;12.43;;;;;;;;;;10462865;27;20054;-63
2022/04/04 15:48:50;;;;;;;57.95;28.75;;;;;;;;;;10477943;27;20041;-64
2022/04/04 15:53:49;;;;;;;74.45;35.90;;;;;;;;;;10458762;27;20097;-64
2022/04/04 15:58:50;;;;;;;25.13;17.85;;;;;;;;;;10475187;27;20582;-64
2022/04/04 16:03:48;;;;;;;19.80;16.02;;;;;;;;;;10471472;27;20092;-64
2022/04/04 16:08:47;;;;;;;19.33;15.85;;;;;;;;;;10453242;27;20046;-63
2022/04/04 16:13:46;;;;;;;24.75;17.58;;;;;;;;;;10470205;27;20074;-64
2022/04/04 16:18:46;;;;;;;30.15;22.95;;;;;;;;;;10469818;27;20072;-64
2022/04/04 16:23:44;;;;;;;25.98;19.13;;;;;;;;;;10470800;27;20082;-64
2022/04/04 16:28:44;;;;;;;28.05;18.98;;;;;;;;;;10470318;27;20045;-62
2022/04/04 16:33:42;;;;;;;32.90;24.50;;;;;;;;;;10469916;27;20078;-63
2022/04/04 16:38:46;;;;;;;31.10;21.27;;;;;;;;;;10469872;27;20043;-63
2022/04/04 16:43:45;;;;;;;66.10;38.15;;;;;;;;;;10469546;27;20082;-64
2022/04/04 16:48:44;;;;;;;23.48;18.55;;;;;;;;;;10469465;27;20081;-64
2022/04/04 16:53:44;;;;;;;32.35;24.77;;;;;;;;;;10460992;27;20072;-64
2022/04/04 16:58:42;;;;;;;37.50;25.60;;;;;;;;;;10449785;27;20465;-62
2022/04/04 17:03:40;;;;;;;34.80;24.33;;;;;;;;;;10463284;27;20081;-62
2022/04/04 17:08:39;;;;;;;34.38;22.27;;;;;;;;;;10447057;27;20082;-62
2022/04/04 17:13:38;;;;;;;65.00;41.08;;;;;;;;;;10449676;27;20066;-62
2022/04/04 17:18:38;;;;;;;61.47;43.97;;;;;;;;;;10453351;27;20086;-63
2022/04/04 17:23:37;;;;;;;43.38;28.08;;;;;;;;;;10447239;27;20067;-63
2022/04/04 17:28:35;;;;;;;57.53;39.58;;;;;;;;;;10447366;27;20070;-62
2022/04/04 17:33:37;;;;;;;57.03;40.45;;;;;;;;;;10463721;27;20092;-61
2022/04/04 17:38:35;;;;;;;78.78;52.90;;;;;;;;;;10462179;27;20348;-63
2022/04/04 17:43:34;;;;;;;162.18;103.10;;;;;;;;;;10453295;27;20074;-63
2022/04/04 17:48:33;;;;;;;97.50;64.45;;;;;;;;;;10452282;27;20503;-63
2022/04/04 17:53:32;;;;;;;222.43;143.65;;;;;;;;;;10452544;27;20082;-64
2022/04/04 17:58:31;;;;;;;82.57;57.95;;;;;;;;;;10461441;27;20466;-62
2022/04/04 18:03:29;;;;;;;70.35;50.22;;;;;;;;;;10456626;27;20066;-62
2022/04/04 18:08:29;;;;;;;42.03;33.70;;;;;;;;;;10468722;27;20070;-60
2022/04/04 18:13:49;;;;;;;27.65;22.67;;;;;;;;;;10453826;27;20070;-61
2022/04/04 18:18:47;;;;;;;36.55;23.20;;;;;;;;;;10451013;27;20075;-60
2022/04/04 18:23:46;;;;;;;23.95;16.63;;;;;;;;;;10451369;27;20536;-61
2022/04/04 18:28:45;;;;;;;16.95;12.85;;;;;;;;;;10449001;27;20171;-61
2022/04/04 18:33:45;;;;;;;16.83;11.60;;;;;;;;;;10465864;27;20082;-61
2022/04/04 18:38:43;;;;;;;13.73;11.20;;;;;;;;;;10465490;27;20093;-60
2022/04/04 18:43:41;;;;;;;13.85;10.98;;;;;;;;;;10451149;27;20070;-60
2022/04/04 18:48:40;;;;;;;12.27;10.98;;;;;;;;;;10448275;27;20049;-62
2022/04/04 18:53:41;;;;;;;13.13;10.43;;;;;;;;;;10464647;27;20078;-61
2022/04/04 18:58:40;;;;;;;14.43;10.75;;;;;;;;;;10450842;27;20066;-58
2022/04/04 19:03:41;;;;;;;12.90;9.45;;;;;;;;;;10445140;27;20101;-60
2022/04/04 19:08:41;;;;;;;13.70;11.50;;;;;;;;;;10446227;27;20525;-60
2022/04/04 19:13:39;;;;;;;14.57;12.40;;;;;;;;;;10459223;27;20125;-61
2022/04/04 19:18:39;;;;;;;14.77;11.48;;;;;;;;;;10464974;27;20043;-61
2022/04/04 19:23:37;;;;;;;13.90;11.15;;;;;;;;;;10462674;27;20078;-61
2022/04/04 19:28:38;;;;;;;12.73;11.35;;;;;;;;;;10455294;27;20082;-61
2022/04/04 19:33:36;;;;;;;16.58;10.20;;;;;;;;;;10437729;27;20066;-61
2022/04/04 19:38:35;;;;;;;13.60;11.88;;;;;;;;;;10461561;27;20077;-61
2022/04/04 19:43:33;;;;;;;16.13;13.70;;;;;;;;;;10473392;27;20063;-61
2022/04/04 19:48:34;;;;;;;12.80;11.43;;;;;;;;;;10454015;27;20470;-62
2022/04/04 19:53:32;;;;;;;17.52;11.20;;;;;;;;;;10471405;27;20101;-61
2022/04/04 19:58:31;;;;;;;15.98;12.00;;;;;;;;;;10454049;27;20078;-61
2022/04/04 20:03:29;;;;;;;17.50;15.55;;;;;;;;;;10472013;27;20050;-62
2022/04/04 20:08:29;;;;;;;17.65;11.07;;;;;;;;;;10454590;27;20071;-60
2022/04/04 20:13:27;;;;;;;12.48;11.18;;;;;;;;;;10466036;27;20074;-60
2022/04/04 20:18:26;;;;;;;10.70;9.60;;;;;;;;;;10475644;27;20078;-61
2022/04/04 20:23:25;;;;;;;12.98;11.57;;;;;;;;;;10472964;27;20077;-60
2022/04/04 20:28:25;;;;;;;11.98;10.73;;;;;;;;;;10484491;27;20074;-60
2022/04/04 20:33:23;;;;;;;13.10;11.68;;;;;;;;;;10484188;27;20470;-61
2022/04/04 20:38:22;;;;;;;16.83;13.20;;;;;;;;;;10475409;27;20038;-62
2022/04/04 20:43:20;;;;;;;24.20;13.27;;;;;;;;;;10473140;27;20058;-61
2022/04/04 20:48:22;;;;;;;14.65;9.95;;;;;;;;;;10456447;27;20569;-61
2022/04/04 20:53:21;;;;;;;13.23;9.60;;;;;;;;;;10475418;27;20067;-61
2022/04/04 20:58:20;;;;;;;10.63;8.77;;;;;;;;;;10475259;27;20073;-62
2022/04/04 21:03:18;;;;;;;13.70;9.73;;;;;;;;;;10475351;27;20067;-61
2022/04/04 21:08:18;;;;;;;18.35;12.65;;;;;;;;;;10481885;27;20039;-62
2022/04/04 21:13:17;;;;;;;11.68;10.10;;;;;;;;;;10480907;27;20078;-61
2022/04/04 21:18:16;;;;;;;20.15;9.80;;;;;;;;;;10474841;27;20070;-61
2022/04/04 21:23:14;;;;;;;17.83;9.80;;;;;;;;;;10472922;27;20457;-62
2022/04/04 21:28:15;;;;;;;13.40;10.40;;;;;;;;;;10469449;27;20062;-61
2022/04/04 21:33:13;;;;;;;15.20;10.15;;;;;;;;;;10470887;27;20044;-60
2022/04/04 21:38:15;;;;;;;28.63;14.05;;;;;;;;;;10441820;27;20491;-60
2022/04/04 21:43:15;;;;;;;23.70;12.82;;;;;;;;;;10466827;27;20069;-60
2022/04/04 21:48:13;;;;;;;55.88;19.30;;;;;;;;;;10466296;27;20051;-60
2022/04/04 21:53:12;;;;;;;33.72;15.60;;;;;;;;;;10467327;27;20070;-60
2022/04/04 21:58:10;;;;;;;39.42;18.33;;;;;;;;;;10467733;27;20471;-61
2022/04/04 22:03:11;;;;;;;52.70;25.60;;;;;;;;;;10447678;27;20046;-61
2022/04/04 22:08:10;;;;;;;39.70;19.10;;;;;;;;;;10467289;27;20078;-61
2022/04/04 22:13:08;;;;;;;22.67;11.75;;;;;;;;;;10467582;27;20069;-61
2022/04/04 22:18:07;;;;;;;10.88;9.32;;;;;;;;;;10479373;27;20086;-61
2022/04/04 22:23:07;;;;;;;13.77;8.95;;;;;;;;;;10480066;27;20061;-61
2022/04/04 22:28:05;;;;;;;11.57;9.80;;;;;;;;;;10466543;27;20105;-60
2022/04/04 22:33:04;;;;;;;10.48;9.07;;;;;;;;;;10467108;27;20075;-60
2022/04/04 22:38:02;;;;;;;12.73;8.73;;;;;;;;;;10466905;27;20081;-61
2022/04/04 22:43:02;;;;;;;9.88;8.85;;;;;;;;;;10466819;27;20062;-61
2022/04/04 22:48:00;;;;;;;8.85;7.95;;;;;;;;;;10465308;27;20087;-61
2022/04/04 22:52:58;;;;;;;9.10;8.20;;;;;;;;;;10466260;27;20067;-62
2022/04/04 22:57:57;;;;;;;10.85;9.75;;;;;;;;;;10466499;27;20077;-61
2022/04/04 23:02:57;;;;;;;13.90;8.95;;;;;;;;;;10466799;27;20035;-61
2022/04/04 23:07:56;;;;;;;10.68;9.57;;;;;;;;;;10480911;27;20035;-62
2022/04/04 23:12:54;;;;;;;21.17;10.82;;;;;;;;;;10487489;27;20057;-61
2022/04/04 23:17:53;;;;;;;18.27;10.55;;;;;;;;;;10487694;27;20078;-62
2022/04/04 23:22:53;;;;;;;9.88;8.88;;;;;;;;;;10473150;27;20054;-61
2022/04/04 23:27:53;;;;;;;10.43;8.75;;;;;;;;;;10474184;27;20066;-61
2022/04/04 23:32:51;;;;;;;11.25;8.68;;;;;;;;;;10471057;27;20077;-59
2022/04/04 23:37:50;;;;;;;9.88;8.95;;;;;;;;;;10472900;27;20074;-61
2022/04/04 23:42:50;;;;;;;11.00;9.00;;;;;;;;;;10487132;27;20043;-61
2022/04/04 23:47:48;;;;;;;10.00;8.85;;;;;;;;;;10486999;27;20070;-61
2022/04/04 23:52:46;;;;;;;12.10;8.80;;;;;;;;;;10472394;27;20082;-61
2022/04/04 23:57:45;;;;;;;13.35;9.43;;;;;;;;;;10449269;27;20071;-61
